Time;durP1;ratioP1;P1;durP2;ratioP2;P2;SDS_P1;SDS_P2;PMS_P1;PMS_P2;Temp;Humidity;BMP_temperature;BMP_pressure;BME280_temperature;BME280_humidity;BME280_pressure;Samples;Min_cycle;Max_cycle;Signal;HPM_P1;HPM_P2
2020/12/24 00:00:12;;;;;;;7.03;2.30;;;5.40;99.90;;;;;;5006559;28;20743;-67
2020/12/24 00:02:39;;;;;;;7.63;1.42;;;5.40;99.90;;;;;;5009938;28;20050;-70
2020/12/24 00:05:10;;;;;;;;;;;5.40;99.90;;;;;;5012958;28;20412;-70
2020/12/24 00:07:37;;;;;;;6.05;1.83;;;5.40;99.90;;;;;;5007245;28;19951;-68
2020/12/24 00:10:04;;;;;;;4.03;1.75;;;5.40;99.90;;;;;;5014623;28;20049;-64
2020/12/24 00:12:30;;;;;;;5.40;1.48;;;5.40;99.90;;;;;;5006949;28;20053;-68
2020/12/24 00:14:56;;;;;;;9.40;2.03;;;5.40;99.90;;;;;;5008430;28;20041;-67
2020/12/24 00:17:23;;;;;;;5.13;1.33;;;5.40;99.90;;;;;;5003469;28;20083;-65
2020/12/24 00:19:49;;;;;;;13.15;1.95;;;5.40;99.90;;;;;;5005580;28;20085;-68
2020/12/24 00:22:16;;;;;;;7.78;1.40;;;5.40;99.90;;;;;;4999684;28;20049;-69
2020/12/24 00:24:42;;;;;;;4.63;1.30;;;5.40;99.90;;;;;;5005908;28;20125;-64
2020/12/24 00:27:09;;;;;;;6.18;1.73;;;5.40;99.90;;;;;;5003850;28;20136;-71
2020/12/24 00:29:36;;;;;;;4.53;1.20;;;5.30;99.90;;;;;;5005305;28;20042;-69
2020/12/24 00:32:03;;;;;;;11.02;1.95;;;5.30;99.90;;;;;;5001788;28;21006;-69
2020/12/24 00:34:29;;;;;;;5.10;1.65;;;5.30;99.90;;;;;;5003592;28;21464;-70
2020/12/24 00:36:56;;;;;;;10.23;2.58;;;5.30;99.90;;;;;;5011021;28;20102;-70
2020/12/24 00:39:25;;;;;;;5.65;2.50;;;5.30;99.90;;;;;;5004795;28;20056;-67
2020/12/24 00:41:51;;;;;;;8.27;1.58;;;5.30;99.90;;;;;;5006043;28;20061;-65
2020/12/24 00:44:19;;;;;;;8.60;2.05;;;5.30;99.90;;;;;;5004817;28;20123;-72
2020/12/24 00:46:46;;;;;;;6.10;1.70;;;5.30;99.90;;;;;;5004945;28;20048;-68
2020/12/24 00:49:13;;;;;;;7.32;1.33;;;5.30;99.90;;;;;;5010334;28;20048;-65
2020/12/24 00:51:39;;;;;;;5.50;1.30;;;5.30;99.90;;;;;;5004540;28;20038;-70
2020/12/24 00:54:06;;;;;;;6.78;2.15;;;5.30;99.90;;;;;;5013626;28;20087;-68
2020/12/24 00:56:32;;;;;;;4.80;1.95;;;5.30;99.90;;;;;;5004879;28;20057;-65
2020/12/24 00:59:07;;;;;;;11.23;1.67;;;5.30;99.90;;;;;;5016542;28;20114;-70
2020/12/24 01:01:33;;;;;;;7.30;1.10;;;5.30;99.90;;;;;;5031252;28;20059;-67
2020/12/24 01:04:00;;;;;;;6.15;2.30;;;5.30;99.90;;;;;;5022038;28;20076;-70
2020/12/24 01:06:26;;;;;;;2.33;0.70;;;5.30;99.90;;;;;;5028111;28;20165;-66
2020/12/24 01:08:52;;;;;;;4.50;1.08;;;5.30;99.90;;;;;;5026140;28;20138;-68
2020/12/24 01:11:19;;;;;;;5.70;1.48;;;5.30;99.90;;;;;;5027745;28;20055;-72
2020/12/24 01:13:45;;;;;;;5.60;2.05;;;5.30;99.90;;;;;;5032019;28;20136;-68
2020/12/24 01:16:12;;;;;;;10.15;1.10;;;5.30;99.90;;;;;;5021978;28;20045;-67
2020/12/24 01:18:56;;;;;;;4.78;0.90;;;5.30;99.90;;;;;;5026416;28;20554;-68
2020/12/24 01:21:22;;;;;;;10.75;1.27;;;5.30;99.90;;;;;;5026876;28;20123;-68
2020/12/24 01:23:48;;;;;;;5.15;1.52;;;5.20;99.90;;;;;;5028602;28;20447;-71
2020/12/24 01:26:15;;;;;;;4.07;1.67;;;5.30;99.90;;;;;;5028280;28;20096;-65
2020/12/24 01:28:41;;;;;;;3.83;1.92;;;5.20;99.90;;;;;;5025239;28;20744;-70
2020/12/24 01:31:08;;;;;;;8.00;1.05;;;5.20;99.90;;;;;;5022753;28;20045;-70
2020/12/24 01:33:34;;;;;;;1.77;1.00;;;5.30;99.90;;;;;;5023393;28;20049;-66
2020/12/24 01:36:00;;;;;;;3.97;1.40;;;5.20;99.90;;;;;;5025191;28;20123;-66
2020/12/24 01:38:27;;;;;;;6.82;1.70;;;5.20;99.90;;;;;;5020506;28;20045;-68
2020/12/24 01:41:02;;;;;;;6.05;1.25;;;5.20;99.90;;;;;;5023792;28;20072;-70
2020/12/24 01:43:29;;;;;;;8.32;1.30;;;5.20;99.90;;;;;;5025513;28;20489;-70
2020/12/24 01:45:57;;;;;;;5.38;1.15;;;5.20;99.90;;;;;;5027076;28;20122;-68
2020/12/24 01:48:24;;;;;;;8.60;1.70;;;5.20;99.90;;;;;;5023189;28;20146;-70
2020/12/24 01:50:51;;;;;;;11.95;2.42;;;5.20;99.90;;;;;;5020896;28;20096;-70
2020/12/24 01:53:23;;;;;;;7.72;2.65;;;5.20;99.90;;;;;;5023472;28;20053;-68
2020/12/24 01:55:51;;;;;;;5.47;1.45;;;5.20;99.90;;;;;;5030503;28;20790;-69
2020/12/24 01:58:18;;;;;;;5.68;1.67;;;5.20;99.90;;;;;;5026694;28;20092;-69
2020/12/24 02:00:46;;;;;;;4.78;1.00;;;5.10;99.90;;;;;;5025419;28;20685;-71
2020/12/24 02:03:16;;;;;;;5.03;1.42;;;5.20;99.90;;;;;;5019673;28;20174;-66
2020/12/24 02:05:43;;;;;;;2.00;1.00;;;5.10;99.90;;;;;;5020651;28;20056;-67
2020/12/24 02:08:10;;;;;;;6.28;1.20;;;5.10;99.90;;;;;;5025255;28;20152;-67
2020/12/24 02:10:38;;;;;;;4.53;1.13;;;5.10;99.90;;;;;;5030424;28;20049;-72
2020/12/24 02:13:04;;;;;;;2.80;0.98;;;5.10;99.90;;;;;;5024148;28;20114;-68
2020/12/24 02:15:31;;;;;;;3.85;0.90;;;5.10;99.90;;;;;;5026880;28;20577;-69
2020/12/24 02:17:57;;;;;;;8.30;1.08;;;5.10;99.90;;;;;;5030629;28;20114;-74
2020/12/24 02:20:23;;;;;;;8.52;1.10;;;5.10;99.90;;;;;;5018968;28;20036;-68
2020/12/24 02:22:50;;;;;;;4.10;1.02;;;5.10;99.90;;;;;;5029155;28;20045;-66
2020/12/24 02:25:16;;;;;;;9.80;2.05;;;5.10;99.90;;;;;;5025789;28;20381;-67
2020/12/24 02:27:43;;;;;;;4.05;1.38;;;5.10;99.90;;;;;;5028947;28;20052;-70
2020/12/24 02:30:09;;;;;;;4.10;1.10;;;5.10;99.90;;;;;;5026743;28;20771;-66
2020/12/24 02:32:36;;;;;;;3.97;1.88;;;5.10;99.90;;;;;;5021414;28;20139;-71
2020/12/24 02:35:04;;;;;;;2.58;1.10;;;5.10;99.90;;;;;;5026797;28;20459;-67
2020/12/24 02:37:30;;;;;;;3.60;1.65;;;5.10;99.90;;;;;;5019659;28;20044;-64
2020/12/24 02:39:57;;;;;;;4.93;1.50;;;5.10;99.90;;;;;;5015820;28;20160;-69
2020/12/24 02:42:24;;;;;;;5.30;1.20;;;5.10;99.90;;;;;;5020772;28;20052;-68
2020/12/24 02:44:50;;;;;;;4.38;1.45;;;5.10;99.90;;;;;;5025141;28;20064;-68
2020/12/24 02:47:17;;;;;;;7.80;2.10;;;5.10;99.90;;;;;;5032034;28;20048;-71
2020/12/24 02:49:56;;;;;;;5.38;2.38;;;5.00;99.90;;;;;;5022659;28;20489;-70
2020/12/24 02:52:23;;;;;;;8.25;2.70;;;5.00;99.90;;;;;;5019268;28;20037;-67
2020/12/24 02:54:49;;;;;;;7.15;1.25;;;5.00;99.90;;;;;;5027716;28;20049;-68
2020/12/24 02:57:16;;;;;;;3.15;1.02;;;5.00;99.90;;;;;;5027846;28;20526;-68
2020/12/24 03:00:06;;;;;;;5.07;0.85;;;5.00;99.90;;;;;;5025516;28;20041;-72
2020/12/24 03:02:33;;;;;;;5.40;1.27;;;5.00;99.90;;;;;;5028378;28;20056;-64
2020/12/24 03:04:59;;;;;;;11.55;3.38;;;5.00;99.90;;;;;;5027603;28;20053;-70
2020/12/24 03:07:25;;;;;;;4.57;1.40;;;5.00;99.90;;;;;;5028639;28;20135;-69
2020/12/24 03:09:54;;;;;;;6.15;1.25;;;5.00;99.90;;;;;;5025462;28;20053;-71
2020/12/24 03:12:25;;;;;;;4.70;0.95;;;5.00;99.90;;;;;;5024116;28;20045;-69
2020/12/24 03:14:52;;;;;;;7.97;2.53;;;5.00;99.90;;;;;;5033623;28;20689;-65
2020/12/24 03:17:19;;;;;;;6.82;1.77;;;4.90;99.90;;;;;;5025770;28;20139;-67
2020/12/24 03:19:47;;;;;;;4.78;2.55;;;4.90;99.90;;;;;;5027229;28;20044;-70
2020/12/24 03:22:13;;;;;;;7.65;1.30;;;5.00;99.90;;;;;;5028855;28;20890;-68
2020/12/24 03:24:40;;;;;;;3.25;1.25;;;4.90;99.90;;;;;;5022382;28;20104;-68
2020/12/24 03:27:06;;;;;;;8.48;1.33;;;4.90;99.90;;;;;;5032413;28;20068;-66
2020/12/24 03:29:33;;;;;;;1.65;0.90;;;4.90;99.90;;;;;;5030002;28;20153;-67
2020/12/24 03:32:00;;;;;;;3.42;1.45;;;4.90;99.90;;;;;;5030983;28;20041;-65
2020/12/24 03:34:44;;;;;;;11.35;2.92;;;4.90;99.90;;;;;;5032138;28;20495;-67
2020/12/24 03:37:11;;;;;;;3.58;0.93;;;4.90;99.90;;;;;;5027579;28;20141;-67
2020/12/24 03:39:37;;;;;;;4.75;1.00;;;4.80;99.90;;;;;;5028162;28;20800;-64
2020/12/24 03:42:04;;;;;;;7.22;2.13;;;4.80;99.90;;;;;;5027836;28;20571;-70
2020/12/24 03:44:30;;;;;;;2.45;1.05;;;4.80;99.90;;;;;;5023534;28;20045;-69
2020/12/24 03:46:58;;;;;;;9.18;1.85;;;4.80;99.90;;;;;;5032232;28;20261;-71
2020/12/24 03:49:24;;;;;;;2.60;0.98;;;4.80;99.90;;;;;;5026958;28;20041;-68
2020/12/24 03:51:50;;;;;;;2.33;1.33;;;4.80;99.90;;;;;;5025898;28;20069;-65
2020/12/24 03:54:17;;;;;;;5.93;1.38;;;4.80;99.90;;;;;;5026304;28;20164;-68
2020/12/24 03:56:43;;;;;;;1.50;0.93;;;4.80;99.90;;;;;;5026942;28;20041;-73
2020/12/24 03:59:09;;;;;;;3.10;1.10;;;4.70;99.90;;;;;;5027902;28;20045;-66
2020/12/24 04:01:37;;;;;;;4.57;2.53;;;4.70;99.90;;;;;;5025966;28;20056;-70
2020/12/24 04:04:03;;;;;;;2.38;0.70;;;4.70;99.90;;;;;;5033888;28;20103;-66
2020/12/24 04:06:30;;;;;;;4.68;1.05;;;4.70;99.90;;;;;;5030060;28;20135;-65
2020/12/24 04:08:56;;;;;;;7.22;1.23;;;4.70;99.90;;;;;;5023920;28;20130;-65
2020/12/24 04:11:23;;;;;;;3.97;0.98;;;4.60;99.90;;;;;;5031498;28;20049;-66
2020/12/24 04:13:49;;;;;;;6.10;1.20;;;4.50;99.90;;;;;;5025687;28;20558;-67
2020/12/24 04:16:19;;;;;;;5.53;1.40;;;4.50;99.90;;;;;;5027590;28;20055;-67
2020/12/24 04:18:46;;;;;;;5.18;1.23;;;4.50;99.90;;;;;;5028581;28;20060;-66
2020/12/24 04:21:13;;;;;;;4.72;0.90;;;4.40;99.90;;;;;;5024495;28;20065;-66
2020/12/24 04:23:40;;;;;;;6.05;1.35;;;4.40;99.90;;;;;;5025722;28;20178;-67
2020/12/24 04:26:07;;;;;;;2.60;1.67;;;4.30;99.90;;;;;;5024630;28;20046;-68
2020/12/24 04:28:35;;;;;;;2.88;1.90;;;4.30;99.90;;;;;;5026451;28;20440;-66
2020/12/24 04:31:03;;;;;;;2.17;0.90;;;4.20;99.90;;;;;;5032429;28;20141;-69
2020/12/24 04:33:31;;;;;;;6.00;1.10;;;4.20;99.90;;;;;;5024692;28;20057;-69
2020/12/24 04:35:57;;;;;;;6.85;2.33;;;4.20;99.90;;;;;;5024280;28;20103;-67
2020/12/24 04:38:24;;;;;;;4.57;1.52;;;4.20;99.90;;;;;;5026569;28;20130;-68
2020/12/24 04:40:50;;;;;;;8.77;3.30;;;4.20;99.90;;;;;;5025891;28;20126;-67
2020/12/24 04:43:17;;;;;;;4.28;1.65;;;4.20;99.90;;;;;;5027641;28;20049;-67
2020/12/24 04:45:47;;;;;;;6.70;1.45;;;4.20;99.90;;;;;;5025833;28;20512;-66
2020/12/24 04:48:14;;;;;;;1.52;1.25;;;4.20;99.90;;;;;;5028633;28;20424;-67
2020/12/24 04:50:42;;;;;;;3.10;1.58;;;4.20;99.90;;;;;;5022904;28;20049;-66
2020/12/24 04:53:09;;;;;;;6.28;2.47;;;4.20;99.90;;;;;;5020167;28;20056;-69
2020/12/24 04:55:35;;;;;;;6.22;2.72;;;4.10;99.90;;;;;;5030379;28;20047;-69
2020/12/24 04:58:02;;;;;;;5.95;2.30;;;4.10;99.90;;;;;;5026340;28;20068;-67
2020/12/24 05:00:28;;;;;;;4.57;1.52;;;4.10;99.90;;;;;;5024594;28;20061;-71
2020/12/24 05:03:08;;;;;;;7.13;2.30;;;4.20;99.90;;;;;;5024352;28;20069;-66
2020/12/24 05:05:36;;;;;;;3.95;2.05;;;4.20;99.90;;;;;;5024750;28;20096;-68
2020/12/24 05:08:05;;;;;;;7.28;2.47;;;4.20;99.90;;;;;;5028174;28;20045;-67
2020/12/24 05:10:33;;;;;;;5.97;2.83;;;4.20;99.90;;;;;;5022272;28;20048;-69
2020/12/24 05:13:13;;;;;;;6.75;1.85;;;4.20;99.90;;;;;;5027620;28;20049;-66
2020/12/24 05:15:40;;;;;;;4.22;1.85;;;4.20;99.90;;;;;;5032303;28;20041;-69
2020/12/24 05:18:14;;;;;;;3.58;2.05;;;4.20;99.90;;;;;;5025660;28;20045;-67
2020/12/24 05:20:41;;;;;;;4.88;1.92;;;4.20;99.90;;;;;;5028225;28;20111;-68
2020/12/24 05:23:20;;;;;;;4.75;2.05;;;4.10;99.90;;;;;;5025145;28;20523;-68
2020/12/24 05:25:48;;;;;;;5.72;2.22;;;4.10;99.90;;;;;;5025692;28;20124;-70
2020/12/24 05:28:25;;;;;;;3.70;1.83;;;4.10;99.90;;;;;;5029224;28;20132;-66
2020/12/24 05:30:53;;;;;;;3.03;1.70;;;4.10;99.90;;;;;;5024018;28;20041;-70
2020/12/24 05:33:33;;;;;;;9.73;2.92;;;4.10;99.90;;;;;;5022072;28;20059;-68
2020/12/24 05:36:20;;;;;;;4.43;3.47;;;4.00;99.90;;;;;;5028875;28;20049;-67
2020/12/24 05:38:48;;;;;;;9.70;2.63;;;4.00;99.90;;;;;;5023831;28;20049;-67
2020/12/24 05:41:35;;;;;;;7.13;2.25;;;4.00;99.90;;;;;;5024501;28;20049;-71
2020/12/24 05:44:07;;;;;;;4.65;2.15;;;3.90;99.90;;;;;;5028586;28;20433;-67
2020/12/24 05:46:47;;;;;;;6.65;3.33;;;3.90;99.90;;;;;;5022878;28;20478;-66
2020/12/24 05:49:19;;;;;;;10.23;2.78;;;3.90;99.90;;;;;;5025152;28;20053;-68
2020/12/24 05:52:05;;;;;;;7.13;2.13;;;3.90;99.90;;;;;;5023612;28;20049;-67
2020/12/24 05:54:37;;;;;;;4.95;1.80;;;3.90;99.90;;;;;;5003228;28;20053;-69
2020/12/24 05:57:03;;;;;;;3.67;1.70;;;3.80;99.90;;;;;;5007837;28;20051;-66
2020/12/24 05:59:31;;;;;;;7.18;3.55;;;3.80;99.90;;;;;;5001697;28;20038;-67
2020/12/24 06:02:05;;;;;;;12.48;1.52;;;3.70;99.90;;;;;;5007708;28;20334;-68
2020/12/24 06:04:44;;;;;;;5.07;1.85;;;3.70;99.90;;;;;;5003747;28;20058;-65
2020/12/24 06:07:31;;;;;;;11.32;2.38;;;3.70;99.90;;;;;;5003160;28;20045;-67
2020/12/24 06:10:05;;;;;;;4.07;2.15;;;3.60;99.90;;;;;;5007415;28;20072;-68
2020/12/24 06:12:31;;;;;;;6.88;1.95;;;3.60;99.90;;;;;;5012491;28;20053;-64
2020/12/24 06:15:02;;;;;;;5.38;1.90;;;3.50;99.90;;;;;;5005663;28;20496;-67
2020/12/24 06:17:30;;;;;;;4.50;1.58;;;3.50;99.90;;;;;;5005752;28;20057;-68
2020/12/24 06:19:57;;;;;;;10.65;2.55;;;3.50;99.90;;;;;;5011163;28;20052;-71
2020/12/24 06:22:25;;;;;;;5.47;2.08;;;3.40;99.90;;;;;;4999650;28;20131;-66
2020/12/24 06:24:53;;;;;;;9.00;1.92;;;3.40;99.90;;;;;;5005635;28;20054;-65
2020/12/24 06:27:42;;;;;;;7.50;2.00;;;3.30;99.90;;;;;;5004254;28;20038;-68
2020/12/24 06:30:16;;;;;;;4.85;1.80;;;3.30;99.90;;;;;;5002753;28;20436;-71
2020/12/24 06:32:48;;;;;;;6.43;1.83;;;3.20;99.90;;;;;;5022034;28;20479;-72
2020/12/24 06:35:34;;;;;;;5.03;2.47;;;3.20;99.90;;;;;;5025425;28;20129;-66
2020/12/24 06:38:01;;;;;;;8.35;2.10;;;3.10;99.90;;;;;;5025548;28;20484;-66
2020/12/24 06:40:34;;;;;;;4.30;3.10;;;3.10;99.90;;;;;;5029204;28;20164;-67
2020/12/24 06:43:01;;;;;;;3.75;2.40;;;3.00;99.90;;;;;;5021930;28;20045;-68
2020/12/24 06:45:27;;;;;;;6.25;2.38;;;3.00;99.90;;;;;;5030322;28;20069;-68
2020/12/24 06:48:12;;;;;;;6.53;1.80;;;2.90;99.90;;;;;;5028806;28;20060;-70
2020/12/24 06:50:40;;;;;;;6.97;1.95;;;2.90;99.90;;;;;;5020897;28;20116;-68
2020/12/24 06:53:31;;;;;;;5.95;1.75;;;2.90;99.90;;;;;;5022248;28;20148;-67
2020/12/24 06:56:06;;;;;;;;;;;2.90;99.90;;;;;;5010898;28;20477;-68
2020/12/24 06:58:49;;;;;;;4.28;3.22;;;2.80;99.90;;;;;;5025190;28;19921;-68
2020/12/24 07:01:23;;;;;;;6.90;1.88;;;2.80;99.90;;;;;;5021644;28;20037;-66
2020/12/24 07:03:51;;;;;;;8.38;2.92;;;2.70;99.90;;;;;;5026296;28;20457;-68
2020/12/24 07:06:39;;;;;;;6.03;2.22;;;2.70;99.90;;;;;;5020515;28;20125;-70
2020/12/24 07:09:31;;;;;;;4.25;2.00;;;2.60;99.90;;;;;;5031068;28;20052;-68
2020/12/24 07:11:59;;;;;;;8.15;2.50;;;2.50;99.90;;;;;;5023363;28;20049;-71
2020/12/24 07:14:32;;;;;;;4.45;2.45;;;2.50;99.90;;;;;;5017668;28;20120;-70
2020/12/24 07:17:13;;;;;;;7.72;2.50;;;2.50;99.90;;;;;;5024378;28;20072;-71
2020/12/24 07:19:45;;;;;;;6.95;3.25;;;2.40;99.90;;;;;;5028299;28;20424;-68
2020/12/24 07:22:14;;;;;;;7.53;2.83;;;2.40;99.90;;;;;;5023079;28;20143;-72
2020/12/24 07:24:45;;;;;;;10.20;3.03;;;2.30;99.90;;;;;;5030943;28;20478;-67
2020/12/24 07:27:12;;;;;;;12.32;3.72;;;2.30;99.90;;;;;;5021468;28;20175;-66
2020/12/24 07:29:39;;;;;;;11.45;3.38;;;2.30;99.90;;;;;;5031247;28;20072;-68
2020/12/24 07:32:07;;;;;;;9.05;2.88;;;2.20;99.90;;;;;;5030259;28;20677;-65
2020/12/24 07:34:35;;;;;;;6.82;3.25;;;2.20;99.90;;;;;;5024412;28;20050;-66
2020/12/24 07:37:04;;;;;;;8.10;2.80;;;2.10;99.90;;;;;;5032789;28;20387;-70
2020/12/24 07:39:31;;;;;;;7.13;3.30;;;2.10;99.90;;;;;;5026267;28;20041;-66
2020/12/24 07:41:58;;;;;;;6.97;2.42;;;2.10;99.90;;;;;;5025803;28;20045;-68
2020/12/24 07:44:24;;;;;;;3.97;2.42;;;2.10;99.90;;;;;;5028763;28;20102;-68
2020/12/24 07:46:53;;;;;;;6.18;2.53;;;2.10;99.90;;;;;;5025805;28;20052;-64
2020/12/24 07:49:19;;;;;;;8.18;3.22;;;2.00;99.90;;;;;;5026256;28;20142;-68
2020/12/24 07:51:54;;;;;;;18.90;5.20;;;2.00;99.90;;;;;;5026963;28;20044;-66
2020/12/24 07:54:25;;;;;;;10.45;3.95;;;2.00;99.90;;;;;;5028831;28;20051;-71
2020/12/24 07:56:52;;;;;;;14.30;4.55;;;2.00;99.90;;;;;;5026869;28;20053;-66
2020/12/24 07:59:20;;;;;;;12.50;3.80;;;2.00;99.90;;;;;;5022986;28;20153;-69
2020/12/24 08:01:46;;;;;;;14.48;4.90;;;2.00;99.90;;;;;;5029222;28;20107;-70
2020/12/24 08:04:13;;;;;;;8.43;4.65;;;2.00;99.90;;;;;;5024668;28;20559;-67
2020/12/24 08:06:39;;;;;;;16.80;5.88;;;2.10;99.90;;;;;;5024106;28;20365;-66
2020/12/24 08:09:17;;;;;;;19.40;5.60;;;2.10;99.90;;;;;;5031786;28;20068;-66
2020/12/24 08:11:57;;;;;;;17.33;5.50;;;2.10;99.90;;;;;;5009021;28;20073;-65
2020/12/24 08:14:25;;;;;;;24.13;6.03;;;2.20;99.90;;;;;;5004198;28;20129;-66
2020/12/24 08:16:56;;;;;;;10.63;5.60;;;2.20;99.90;;;;;;5004946;28;20514;-69
2020/12/24 08:19:29;;;;;;;14.00;5.72;;;2.20;99.90;;;;;;5006899;28;20053;-70
2020/12/24 08:22:15;;;;;;;15.43;5.65;;;2.30;99.90;;;;;;5007573;28;20049;-68
2020/12/24 08:24:42;;;;;;;18.90;5.40;;;2.30;99.90;;;;;;5002921;28;20077;-68
2020/12/24 08:27:09;;;;;;;9.23;5.88;;;2.40;99.90;;;;;;5007497;28;20061;-73
2020/12/24 08:29:37;;;;;;;7.57;4.45;;;2.40;99.90;;;;;;5007858;28;20053;-68
2020/12/24 08:32:05;;;;;;;10.48;4.63;;;2.40;99.90;;;;;;5003071;28;20050;-65
2020/12/24 08:34:32;;;;;;;10.48;5.07;;;2.40;99.90;;;;;;5006469;28;20054;-70
2020/12/24 08:36:58;;;;;;;9.82;5.00;;;2.50;99.90;;;;;;5005725;28;20144;-70
2020/12/24 08:39:27;;;;;;;17.92;6.70;;;2.50;99.90;;;;;;5005525;28;20124;-67
2020/12/24 08:42:00;;;;;;;13.43;4.80;;;2.50;99.90;;;;;;5012237;28;20061;-71
2020/12/24 08:44:27;;;;;;;10.63;4.82;;;2.60;99.90;;;;;;5006175;28;20153;-68
2020/12/24 08:47:08;;;;;;;12.18;3.90;;;2.60;99.90;;;;;;5005825;28;20056;-66
2020/12/24 08:49:46;;;;;;;13.38;4.63;;;2.70;99.90;;;;;;5015938;28;20057;-68
2020/12/24 08:52:17;;;;;;;7.15;3.88;;;2.70;99.90;;;;;;5002005;28;20056;-70
2020/12/24 08:55:05;;;;;;;8.77;3.85;;;2.80;99.90;;;;;;5007251;28;20057;-68
2020/12/24 08:57:33;;;;;;;9.20;4.25;;;2.80;99.90;;;;;;5014602;28;20049;-68
2020/12/24 09:00:02;;;;;;;8.13;3.80;;;2.90;99.90;;;;;;5001568;28;20091;-66
2020/12/24 09:02:31;;;;;;;6.10;4.50;;;2.90;99.90;;;;;;5008293;28;20068;-71
2020/12/24 09:05:01;;;;;;;4.97;3.95;;;3.00;99.90;;;;;;5003504;28;20269;-70
2020/12/24 09:07:30;;;;;;;7.57;4.07;;;3.00;99.90;;;;;;5004109;28;20050;-66
2020/12/24 09:10:23;;;;;;;12.27;4.82;;;3.10;99.90;;;;;;5003266;28;20052;-68
2020/12/24 09:13:00;;;;;;;11.07;7.38;;;3.20;99.90;;;;;;5001868;28;20057;-68
2020/12/24 09:15:28;;;;;;;10.30;6.28;;;3.20;99.90;;;;;;5004567;28;20371;-68
2020/12/24 09:17:59;;;;;;;8.40;3.70;;;3.30;99.90;;;;;;5006353;28;20569;-68
2020/12/24 09:20:29;;;;;;;5.45;2.15;;;3.30;99.90;;;;;;5003496;28;21037;-67
2020/12/24 09:22:58;;;;;;;3.45;1.60;;;3.40;99.90;;;;;;5007391;28;20262;-67
2020/12/24 09:25:55;;;;;;;2.58;1.88;;;3.50;99.90;;;;;;5003196;28;20045;-66
2020/12/24 09:28:23;;;;;;;4.15;1.33;;;3.60;99.90;;;;;;4993419;28;20045;-68
2020/12/24 09:30:52;;;;;;;4.22;1.30;;;3.70;99.90;;;;;;5005710;28;20099;-68
2020/12/24 09:33:19;;;;;;;4.10;1.55;;;3.70;99.90;;;;;;5008648;28;20045;-68
2020/12/24 09:35:46;;;;;;;3.38;1.55;;;3.80;99.90;;;;;;5006749;28;20073;-66
2020/12/24 09:38:12;;;;;;;2.60;1.38;;;3.80;99.90;;;;;;5012032;28;20134;-71
2020/12/24 09:40:39;;;;;;;5.25;0.95;;;3.90;99.90;;;;;;5006727;28;20555;-66
2020/12/24 09:43:06;;;;;;;1.75;0.73;;;3.90;99.90;;;;;;5005934;28;20060;-65
2020/12/24 09:45:35;;;;;;;3.10;1.40;;;3.90;99.90;;;;;;5006327;28;20046;-70
2020/12/24 09:48:01;;;;;;;10.07;4.30;;;4.00;99.90;;;;;;5002810;28;20427;-68
2020/12/24 09:50:28;;;;;;;2.63;1.17;;;4.00;99.90;;;;;;5005685;28;20438;-68
2020/12/24 09:52:55;;;;;;;1.52;0.93;;;4.00;99.90;;;;;;5004626;28;20049;-68
2020/12/24 09:55:21;;;;;;;3.33;1.52;;;4.10;99.90;;;;;;5008326;28;20065;-70
2020/12/24 09:57:47;;;;;;;3.92;1.73;;;4.10;99.90;;;;;;5008187;28;21540;-68
2020/12/24 10:00:14;;;;;;;7.88;2.08;;;4.10;99.90;;;;;;5001176;28;20081;-67
2020/12/24 10:02:41;;;;;;;5.13;1.77;;;4.10;99.90;;;;;;5011781;28;20050;-69
2020/12/24 10:05:08;;;;;;;5.25;1.15;;;4.10;99.90;;;;;;5004467;28;20046;-69
2020/12/24 10:07:34;;;;;;;4.07;0.98;;;4.10;99.90;;;;;;5002942;28;20406;-68
2020/12/24 10:10:01;;;;;;;7.57;1.25;;;4.20;99.90;;;;;;5009640;28;20033;-65
2020/12/24 10:12:29;;;;;;;2.42;1.85;;;4.20;99.90;;;;;;4998280;28;20092;-65
2020/12/24 10:14:55;;;;;;;3.72;1.20;;;4.20;99.90;;;;;;5006329;28;20215;-67
2020/12/24 10:17:40;;;;;;;6.20;1.58;;;4.20;99.90;;;;;;5011146;28;20092;-68
2020/12/24 10:20:07;;;;;;;2.55;1.33;;;4.20;99.90;;;;;;5000783;28;20044;-72
2020/12/24 10:22:34;;;;;;;2.35;1.58;;;4.10;99.90;;;;;;5005938;28;20481;-66
2020/12/24 10:25:19;;;;;;;3.25;0.85;;;4.20;99.90;;;;;;5010277;28;20148;-68
2020/12/24 10:27:45;;;;;;;4.15;0.75;;;4.20;99.90;;;;;;5007435;28;20131;-67
2020/12/24 10:30:11;;;;;;;2.80;0.82;;;4.20;99.90;;;;;;5009856;28;20073;-66
2020/12/24 10:32:40;;;;;;;2.53;1.20;;;4.10;99.90;;;;;;5003494;28;20042;-67
2020/12/24 10:35:06;;;;;;;4.63;1.92;;;4.10;99.90;;;;;;5014455;28;20183;-68
2020/12/24 10:37:32;;;;;;;5.05;2.35;;;4.10;99.90;;;;;;5008008;28;20053;-66
2020/12/24 10:39:59;;;;;;;7.63;1.77;;;4.10;99.90;;;;;;5001533;28;20127;-68
2020/12/24 10:42:26;;;;;;;4.78;1.67;;;4.10;99.90;;;;;;5000875;28;20052;-65
2020/12/24 10:44:52;;;;;;;3.72;1.48;;;4.00;99.90;;;;;;5002965;28;20214;-65
2020/12/24 10:47:19;;;;;;;5.65;2.05;;;4.00;99.90;;;;;;5004461;28;20050;-65
2020/12/24 10:49:45;;;;;;;4.50;1.45;;;4.00;99.90;;;;;;5009827;28;20049;-68
2020/12/24 10:52:12;;;;;;;2.38;1.35;;;4.00;99.90;;;;;;4999368;28;20049;-69
2020/12/24 10:54:39;;;;;;;5.55;2.20;;;4.00;99.90;;;;;;5014346;28;20384;-70
2020/12/24 10:57:05;;;;;;;1.98;1.25;;;4.00;99.90;;;;;;5009756;28;20573;-68
2020/12/24 10:59:32;;;;;;;4.93;1.48;;;4.00;99.90;;;;;;5004782;28;20578;-67
2020/12/24 11:01:59;;;;;;;3.03;0.88;;;4.00;99.90;;;;;;5003024;28;20049;-68
2020/12/24 11:04:26;;;;;;;5.88;1.23;;;4.10;99.90;;;;;;5005514;28;20540;-68
2020/12/24 11:06:52;;;;;;;2.35;1.00;;;4.10;99.90;;;;;;5004996;28;20053;-71
2020/12/24 11:09:19;;;;;;;3.53;1.40;;;4.10;99.90;;;;;;5006092;28;20155;-70
2020/12/24 11:11:45;;;;;;;6.20;1.05;;;4.20;99.90;;;;;;5007254;28;20048;-70
2020/12/24 11:14:12;;;;;;;5.50;0.80;;;4.20;99.90;;;;;;5009598;28;20041;-67
2020/12/24 11:16:38;;;;;;;3.58;1.30;;;4.20;99.90;;;;;;5006716;28;22454;-71
2020/12/24 11:19:05;;;;;;;1.10;0.65;;;4.20;99.90;;;;;;5008072;28;20123;-67
2020/12/24 11:21:33;;;;;;;5.85;1.17;;;4.30;99.90;;;;;;5010436;28;20069;-65
2020/12/24 11:24:09;;;;;;;1.40;1.00;;;4.30;99.90;;;;;;5012329;28;20062;-68
2020/12/24 11:26:37;;;;;;;2.13;1.20;;;4.30;99.90;;;;;;5009411;28;20045;-66
2020/12/24 11:29:05;;;;;;;1.92;1.83;;;4.30;99.90;;;;;;5008742;28;20149;-72
2020/12/24 11:31:33;;;;;;;7.20;1.02;;;4.30;99.90;;;;;;5004727;28;20050;-71
2020/12/24 11:34:00;;;;;;;1.17;0.70;;;4.40;99.90;;;;;;5005597;28;20140;-69
2020/12/24 11:36:27;;;;;;;1.38;0.95;;;4.40;99.90;;;;;;5005281;28;20497;-68
2020/12/24 11:38:55;;;;;;;3.05;0.73;;;4.40;99.90;;;;;;5006994;28;20148;-65
2020/12/24 11:41:24;;;;;;;4.75;0.73;;;4.50;99.90;;;;;;5007418;28;20073;-67
2020/12/24 11:43:52;;;;;;;1.13;0.60;;;4.50;99.90;;;;;;5009008;28;20127;-66
2020/12/24 11:46:20;;;;;;;3.25;0.70;;;4.50;99.90;;;;;;5012352;28;20061;-66
2020/12/24 11:48:47;;;;;;;4.30;0.63;;;4.60;99.90;;;;;;5006632;28;20294;-68
2020/12/24 11:51:14;;;;;;;4.03;0.90;;;4.60;99.90;;;;;;5006724;28;20049;-69
2020/12/24 11:53:41;;;;;;;1.85;1.05;;;4.60;99.90;;;;;;5005007;28;20461;-66
2020/12/24 11:56:18;;;;;;;1.63;0.85;;;4.60;99.90;;;;;;5005783;28;20104;-72
2020/12/24 11:58:47;;;;;;;2.45;1.00;;;4.60;99.90;;;;;;5004360;28;20058;-71
2020/12/24 12:01:17;;;;;;;3.88;1.15;;;4.60;99.90;;;;;;5006001;28;20124;-68
2020/12/24 12:03:44;;;;;;;3.78;1.20;;;4.60;99.90;;;;;;5004480;28;20057;-69
2020/12/24 12:06:11;;;;;;;1.48;0.70;;;4.60;99.90;;;;;;5004181;28;20096;-65
2020/12/24 12:08:38;;;;;;;1.85;0.68;;;4.60;99.90;;;;;;5001569;28;20046;-72
2020/12/24 12:11:05;;;;;;;4.70;0.52;;;4.60;99.90;;;;;;5009957;28;20137;-67
2020/12/24 12:13:33;;;;;;;2.95;0.80;;;4.70;99.90;;;;;;5002342;28;20042;-65
2020/12/24 12:15:59;;;;;;;3.28;0.70;;;4.70;99.90;;;;;;5008810;28;20766;-68
2020/12/24 12:18:26;;;;;;;2.70;0.70;;;4.70;99.90;;;;;;5005290;28;20037;-66
2020/12/24 12:20:53;;;;;;;0.70;0.55;;;4.70;99.90;;;;;;5006532;28;20406;-67
2020/12/24 12:23:19;;;;;;;2.15;0.40;;;4.80;99.90;;;;;;5020466;28;20079;-71
2020/12/24 12:25:46;;;;;;;1.42;0.35;;;4.80;99.90;;;;;;5027132;28;20038;-65
2020/12/24 12:28:12;;;;;;;1.08;0.50;;;4.90;99.90;;;;;;5022976;28;20708;-65
2020/12/24 12:30:38;;;;;;;1.55;0.60;;;4.90;99.90;;;;;;5022943;28;20037;-67
2020/12/24 12:33:05;;;;;;;3.97;0.63;;;4.90;99.90;;;;;;5030948;28;20049;-67
2020/12/24 12:35:32;;;;;;;1.23;0.50;;;4.90;99.90;;;;;;5029571;28;20132;-68
2020/12/24 12:37:58;;;;;;;1.48;0.90;;;4.90;99.90;;;;;;5024506;28;20157;-66
2020/12/24 12:40:25;;;;;;;2.20;1.27;;;4.90;99.90;;;;;;5023245;28;20055;-67
2020/12/24 12:42:51;;;;;;;0.95;0.57;;;4.80;99.90;;;;;;5033309;28;20029;-69
2020/12/24 12:45:17;;;;;;;3.38;1.38;;;4.80;99.90;;;;;;5023560;28;20569;-71
2020/12/24 12:47:44;;;;;;;0.45;0.30;;;4.80;99.90;;;;;;5026422;28;20076;-68
2020/12/24 12:50:13;;;;;;;0.77;0.22;;;4.80;99.90;;;;;;5020705;28;20103;-69
2020/12/24 12:52:39;;;;;;;2.10;0.40;;;4.80;99.90;;;;;;5019367;28;20041;-71
2020/12/24 12:55:06;;;;;;;1.58;0.30;;;4.80;99.90;;;;;;5025766;28;20049;-67
2020/12/24 12:57:37;;;;;;;1.25;0.40;;;4.80;99.90;;;;;;5023353;28;20676;-69
2020/12/24 13:00:04;;;;;;;;;;;4.80;99.90;;;;;;5031656;28;20477;-67
2020/12/24 13:02:31;;;;;;;1.02;0.47;;;4.80;99.90;;;;;;5031165;28;20016;-65
2020/12/24 13:04:57;;;;;;;2.28;0.40;;;4.80;99.90;;;;;;5031716;28;20040;-67